Terminal Aerodrome Forecast
Issued by NWS

Home | Current Version | Previous Version | Text Only | Print | Product List | Glossary On
Versions: 1 2 3 4 5 6 7 8 9 10 11 12 13 14 15 16 17
000
FTUS46 KSTO 250500
TAFSMF
TAF
KSMF 250535Z 2506/2606 21015KT P6SM OVC200
     FM250900 15010KT P6SM OVC200
     FM251500 16015KT P6SM OVC050
      TEMPO 2515/2519 P6SM -SHRA OVC025
     FM252000 17018G28KT P6SM BKN070
     FM260000 18015KT P6SM -SHRA OVC050=

USA.gov is the U.S. government's official web portal to all federal, state and local government web resources and services.